createdAt,value
2019-06-27T00:00:59.882Z,20.90
2019-06-27T00:03:28.686Z,20.90
2019-06-27T00:05:57.546Z,20.90
2019-06-27T00:08:26.510Z,20.90
2019-06-27T00:10:55.306Z,20.90
2019-06-27T00:13:24.337Z,20.90
2019-06-27T00:15:53.283Z,20.90
2019-06-27T00:18:22.073Z,20.90
2019-06-27T00:20:50.986Z,20.90
2019-06-27T00:23:19.786Z,20.90
2019-06-27T00:25:48.553Z,20.90
2019-06-27T00:28:17.348Z,20.90
2019-06-27T00:30:46.282Z,20.80
2019-06-27T00:33:15.091Z,20.80
2019-06-27T00:35:44.023Z,20.80
2019-06-27T00:38:12.894Z,20.80
2019-06-27T00:40:41.666Z,20.80
2019-06-27T00:43:10.503Z,20.80
2019-06-27T00:45:39.288Z,20.80
2019-06-27T00:48:08.050Z,20.80
2019-06-27T00:50:36.862Z,20.70
2019-06-27T00:53:05.749Z,20.70
2019-06-27T00:55:34.566Z,20.70
2019-06-27T00:58:03.458Z,20.60
2019-06-27T01:00:32.242Z,20.60
2019-06-27T01:03:01.081Z,20.50
2019-06-27T01:05:30.130Z,20.50
2019-06-27T01:07:58.999Z,20.50
2019-06-27T01:10:27.994Z,20.60
2019-06-27T01:12:56.871Z,20.60
2019-06-27T01:15:25.825Z,20.60
2019-06-27T01:17:54.818Z,20.60
2019-06-27T01:20:23.752Z,20.60
2019-06-27T01:22:52.751Z,20.60
2019-06-27T01:25:21.619Z,20.60
2019-06-27T01:27:50.450Z,20.60
2019-06-27T01:30:19.674Z,20.50
2019-06-27T01:32:48.713Z,20.50
2019-06-27T01:35:17.604Z,20.50
2019-06-27T01:37:46.431Z,20.50
2019-06-27T01:40:15.457Z,20.50
2019-06-27T01:42:44.331Z,20.40
2019-06-27T01:45:22.194Z,20.40
2019-06-27T01:47:51.042Z,20.40
2019-06-27T01:50:19.953Z,20.40
2019-06-27T01:52:48.862Z,20.40
2019-06-27T01:55:17.838Z,20.40
2019-06-27T01:57:47.445Z,20.40
2019-06-27T02:00:17.886Z,20.30
2019-06-27T02:02:46.847Z,20.30
2019-06-27T02:05:15.912Z,20.30
2019-06-27T02:07:44.902Z,20.30
2019-06-27T02:10:14.709Z,20.20
2019-06-27T02:12:43.545Z,20.20
2019-06-27T02:15:13.780Z,20.20
2019-06-27T02:17:42.631Z,20.10
2019-06-27T02:20:12.018Z,20.10
2019-06-27T02:22:40.823Z,20.10
2019-06-27T02:25:10.057Z,20.00
2019-06-27T02:27:39.032Z,20.00
2019-06-27T02:30:08.409Z,20.00
2019-06-27T02:32:37.254Z,20.00
2019-06-27T02:35:07.328Z,20.00
2019-06-27T02:37:36.245Z,20.00
2019-06-27T02:40:05.737Z,20.00
2019-06-27T02:42:34.624Z,19.90
2019-06-27T02:45:03.708Z,19.90
2019-06-27T02:47:32.567Z,19.90
2019-06-27T02:50:01.513Z,19.80
2019-06-27T02:52:30.371Z,19.80
2019-06-27T02:54:59.202Z,19.80
2019-06-27T02:57:28.098Z,19.70
2019-06-27T02:59:56.922Z,19.70
2019-06-27T03:02:25.829Z,19.70
2019-06-27T03:04:54.651Z,19.60
2019-06-27T03:07:23.568Z,19.60
2019-06-27T03:09:52.439Z,19.60
2019-06-27T03:12:21.395Z,19.50
2019-06-27T03:14:50.349Z,19.50
2019-06-27T03:17:19.390Z,19.40
2019-06-27T03:19:48.262Z,19.40
2019-06-27T03:22:17.051Z,19.30
2019-06-27T03:24:45.905Z,19.20
2019-06-27T03:27:14.690Z,19.20
2019-06-27T03:29:43.603Z,19.20
2019-06-27T03:32:12.492Z,19.20
2019-06-27T03:34:41.713Z,19.20
2019-06-27T03:37:10.553Z,19.20
2019-06-27T03:39:39.412Z,19.20
2019-06-27T03:42:08.329Z,19.20
2019-06-27T03:44:37.154Z,19.20
2019-06-27T03:47:06.048Z,19.20
2019-06-27T03:49:34.883Z,19.20
2019-06-27T03:52:03.760Z,19.20
2019-06-27T03:54:32.887Z,19.20
2019-06-27T03:57:01.767Z,19.10
2019-06-27T03:59:30.640Z,19.10
2019-06-27T04:01:59.543Z,19.10
2019-06-27T04:04:28.626Z,19.10
2019-06-27T04:06:57.470Z,19.10
2019-06-27T04:09:26.357Z,19.10
2019-06-27T04:11:55.261Z,19.00
2019-06-27T04:14:24.097Z,19.00
2019-06-27T04:16:53.087Z,19.00
2019-06-27T04:19:21.931Z,19.00
2019-06-27T04:21:50.923Z,19.00
2019-06-27T04:24:19.926Z,18.90
2019-06-27T04:26:48.816Z,18.90
2019-06-27T04:29:33.061Z,18.90
2019-06-27T04:31:48.263Z,18.90
2019-06-27T04:34:19.910Z,18.90
2019-06-27T04:36:47.858Z,18.90
2019-06-27T04:39:16.860Z,18.90
2019-06-27T04:41:45.704Z,18.80
2019-06-27T04:44:14.573Z,18.80
2019-06-27T04:46:43.555Z,18.80
2019-06-27T04:49:13.730Z,18.70
2019-06-27T04:51:43.095Z,18.70
2019-06-27T04:54:11.930Z,18.70
2019-06-27T04:56:40.788Z,18.60
2019-06-27T04:59:09.747Z,18.60
2019-06-27T05:01:38.560Z,18.50
2019-06-27T05:04:07.519Z,18.50
2019-06-27T05:06:36.360Z,18.40
2019-06-27T05:09:05.503Z,18.40
2019-06-27T05:11:34.374Z,18.40
2019-06-27T05:14:03.193Z,18.50
2019-06-27T05:16:32.080Z,18.40
2019-06-27T05:19:00.933Z,18.40
2019-06-27T05:21:29.802Z,18.30
2019-06-27T05:23:59.215Z,18.30
2019-06-27T05:26:28.125Z,18.30
2019-06-27T05:28:56.930Z,18.30
2019-06-27T05:31:25.866Z,18.20
2019-06-27T05:33:54.827Z,18.20
2019-06-27T05:36:23.708Z,18.20
2019-06-27T05:38:52.697Z,18.20
2019-06-27T05:41:21.545Z,18.20
2019-06-27T05:43:50.464Z,18.10
2019-06-27T05:46:19.327Z,18.10
2019-06-27T05:51:25.533Z,18.10
2019-06-27T05:53:54.359Z,18.10
2019-06-27T05:56:23.240Z,18.20
2019-06-27T05:58:52.398Z,18.10
2019-06-27T06:01:21.485Z,18.10
2019-06-27T06:03:50.445Z,18.20
2019-06-27T06:06:19.266Z,18.30
2019-06-27T06:08:48.168Z,18.40
2019-06-27T06:11:17.101Z,18.40
2019-06-27T06:13:45.929Z,18.50
2019-06-27T06:16:14.888Z,18.60
2019-06-27T06:18:43.810Z,18.60
2019-06-27T06:21:12.763Z,18.70
2019-06-27T06:23:41.744Z,18.80
2019-06-27T06:26:10.562Z,18.80
2019-06-27T06:28:39.545Z,18.80
2019-06-27T06:31:10.004Z,18.80
2019-06-27T06:33:39.044Z,18.80
2019-06-27T06:36:07.884Z,18.80
2019-06-27T06:38:36.726Z,18.80
2019-06-27T06:41:05.695Z,18.90
2019-06-27T06:43:34.552Z,18.90
2019-06-27T06:46:03.456Z,19.00
2019-06-27T06:48:32.486Z,19.00
2019-06-27T06:51:01.418Z,19.10
2019-06-27T06:53:30.333Z,19.20
2019-06-27T06:55:59.287Z,19.20
2019-06-27T06:58:28.242Z,19.30
2019-06-27T07:01:02.139Z,19.30
2019-06-27T07:03:27.753Z,19.40
2019-06-27T07:05:56.588Z,19.50
2019-06-27T07:08:25.630Z,19.60
2019-06-27T07:10:54.455Z,19.70
2019-06-27T07:13:23.372Z,19.80
2019-06-27T07:15:52.401Z,19.90
2019-06-27T07:18:21.279Z,20.00
2019-06-27T07:20:50.129Z,20.00
2019-06-27T07:23:19.012Z,20.10
2019-06-27T07:25:47.861Z,20.20
2019-06-27T07:28:16.702Z,20.30
2019-06-27T07:30:45.530Z,20.40
2019-06-27T07:33:14.485Z,20.40
2019-06-27T07:35:43.371Z,20.50
2019-06-27T07:38:12.244Z,20.50
2019-06-27T07:40:41.255Z,20.60
2019-06-27T07:43:10.479Z,20.60
2019-06-27T07:45:39.393Z,20.70
2019-06-27T07:48:08.411Z,20.70
2019-06-27T07:50:37.255Z,20.80
2019-06-27T07:53:06.243Z,20.80
2019-06-27T07:55:35.047Z,20.80
2019-06-27T07:58:03.967Z,20.80
2019-06-27T08:00:32.800Z,20.90
2019-06-27T08:03:01.809Z,21.00
2019-06-27T08:05:30.875Z,21.10
2019-06-27T08:07:59.755Z,21.20
2019-06-27T08:10:28.670Z,21.30
2019-06-27T08:12:57.516Z,21.30
2019-06-27T08:15:26.415Z,21.40
2019-06-27T08:17:55.421Z,21.50
2019-06-27T08:20:24.304Z,21.50
2019-06-27T08:22:53.184Z,21.60
2019-06-27T08:25:22.273Z,21.60
2019-06-27T08:27:51.216Z,21.70
2019-06-27T08:30:20.808Z,21.70
2019-06-27T08:32:49.743Z,21.80
2019-06-27T08:35:18.713Z,21.80
2019-06-27T08:37:47.549Z,21.90
2019-06-27T08:40:16.627Z,22.00
2019-06-27T08:42:45.609Z,22.00
2019-06-27T08:45:14.721Z,22.10
2019-06-27T08:47:43.673Z,22.20
2019-06-27T08:50:13.340Z,22.20
2019-06-27T08:52:42.197Z,22.20
2019-06-27T08:55:11.410Z,22.30
2019-06-27T08:57:40.327Z,22.40
2019-06-27T09:00:09.717Z,22.50
2019-06-27T09:02:38.834Z,22.50
2019-06-27T09:05:08.724Z,22.60
2019-06-27T09:07:37.697Z,22.70
2019-06-27T09:10:07.247Z,22.80
2019-06-27T09:12:36.349Z,22.80
2019-06-27T09:15:06.513Z,22.90
2019-06-27T09:17:35.705Z,22.90
2019-06-27T09:20:05.368Z,23.00
2019-06-27T09:22:34.349Z,23.10
2019-06-27T09:25:03.358Z,23.10
2019-06-27T09:27:32.197Z,23.20
2019-06-27T09:30:01.297Z,23.30
2019-06-27T09:32:30.414Z,23.40
2019-06-27T09:34:59.317Z,23.40
2019-06-27T09:37:28.287Z,23.50
2019-06-27T09:39:57.101Z,23.60
2019-06-27T09:42:25.988Z,23.60
2019-06-27T09:44:54.862Z,23.70
2019-06-27T09:47:23.703Z,23.80
2019-06-27T09:49:52.665Z,23.80
2019-06-27T09:52:21.691Z,23.90
2019-06-27T09:54:50.767Z,24.00
2019-06-27T09:57:19.707Z,24.10
2019-06-27T09:59:48.700Z,24.10
2019-06-27T10:02:17.505Z,24.20
2019-06-27T10:04:46.319Z,24.20
2019-06-27T10:07:15.148Z,24.30
2019-06-27T10:09:44.099Z,24.30
2019-06-27T10:12:12.929Z,24.40
2019-06-27T10:14:41.759Z,24.40
2019-06-27T10:17:10.626Z,24.50
2019-06-27T10:19:39.630Z,24.50
2019-06-27T10:22:08.599Z,24.50
2019-06-27T10:24:37.424Z,24.60
2019-06-27T10:27:06.353Z,24.70
2019-06-27T10:29:35.246Z,24.80
2019-06-27T10:32:04.296Z,24.90
2019-06-27T10:34:33.207Z,24.90
2019-06-27T10:37:02.159Z,25.00
2019-06-27T10:39:31.178Z,25.10
2019-06-27T10:42:00.291Z,25.10
2019-06-27T10:44:29.129Z,25.20
2019-06-27T10:46:58.059Z,25.30
2019-06-27T10:49:26.995Z,25.30
2019-06-27T10:51:55.843Z,25.40
2019-06-27T10:54:24.739Z,25.40
2019-06-27T10:56:53.684Z,25.50
2019-06-27T10:59:22.579Z,25.50
2019-06-27T11:01:51.494Z,25.50
2019-06-27T11:04:20.309Z,25.60
2019-06-27T11:06:49.149Z,25.60
2019-06-27T11:09:17.963Z,25.70
2019-06-27T11:11:46.810Z,25.80
2019-06-27T11:14:18.869Z,25.80
2019-06-27T11:16:46.165Z,25.90
2019-06-27T11:19:15.087Z,25.90
2019-06-27T11:21:44.049Z,25.90
2019-06-27T11:24:13.000Z,25.90
2019-06-27T11:26:41.900Z,26.00
2019-06-27T11:29:10.752Z,26.10
2019-06-27T11:31:39.664Z,26.10
2019-06-27T11:34:08.500Z,26.20
2019-06-27T11:36:37.402Z,26.20
2019-06-27T11:39:07.090Z,26.30
2019-06-27T11:41:36.141Z,26.40
2019-06-27T11:44:05.244Z,26.40
2019-06-27T11:46:34.813Z,26.60
2019-06-27T11:49:03.681Z,26.60
2019-06-27T11:51:32.672Z,26.70
2019-06-27T11:54:01.483Z,26.70
2019-06-27T11:56:30.406Z,26.80
2019-06-27T11:58:59.350Z,26.90
2019-06-27T12:01:28.157Z,26.90
2019-06-27T12:03:57.008Z,27.00
2019-06-27T12:06:25.928Z,27.00
2019-06-27T12:08:54.910Z,27.10
2019-06-27T12:11:23.692Z,27.20
2019-06-27T12:13:52.740Z,27.30
2019-06-27T12:16:21.641Z,27.40
2019-06-27T12:18:50.524Z,27.50
2019-06-27T12:21:19.411Z,27.60
2019-06-27T12:23:48.296Z,27.60
2019-06-27T12:26:17.128Z,27.60
2019-06-27T12:28:46.057Z,27.60
2019-06-27T12:31:20.404Z,27.60
2019-06-27T12:33:45.545Z,27.60
2019-06-27T12:36:14.447Z,27.70
2019-06-27T12:38:43.229Z,27.70
2019-06-27T12:41:12.172Z,27.70
2019-06-27T12:43:41.157Z,27.70
2019-06-27T12:46:10.176Z,27.70
2019-06-27T12:48:39.049Z,27.70
2019-06-27T12:51:07.984Z,27.70
2019-06-27T12:53:36.874Z,27.60
2019-06-27T12:56:05.789Z,27.70
2019-06-27T12:58:34.802Z,27.70
2019-06-27T13:01:03.747Z,27.80
2019-06-27T13:03:32.557Z,27.80
2019-06-27T13:06:01.474Z,27.80
2019-06-27T13:08:30.466Z,27.90
2019-06-27T13:10:59.347Z,27.90
2019-06-27T13:13:30.520Z,27.90
2019-06-27T13:15:58.934Z,27.90
2019-06-27T13:18:27.891Z,27.90
2019-06-27T13:20:58.661Z,28.00
2019-06-27T13:23:27.341Z,28.00
2019-06-27T13:25:56.310Z,28.00
2019-06-27T13:28:25.149Z,28.00
2019-06-27T13:30:54.109Z,28.00
2019-06-27T13:33:22.992Z,28.10
2019-06-27T13:35:51.882Z,28.10
2019-06-27T13:38:20.876Z,28.10
2019-06-27T13:40:49.743Z,28.10
2019-06-27T13:43:18.631Z,28.10
2019-06-27T13:45:47.670Z,28.10
2019-06-27T13:48:16.639Z,28.10
2019-06-27T13:50:45.462Z,28.20
2019-06-27T13:53:15.212Z,28.20
2019-06-27T13:55:44.149Z,28.20
2019-06-27T13:58:12.991Z,28.20
2019-06-27T14:00:43.848Z,28.20
2019-06-27T14:03:12.944Z,28.20
2019-06-27T14:06:01.024Z,28.30
2019-06-27T14:08:29.897Z,28.30
2019-06-27T14:10:58.752Z,28.30
2019-06-27T14:13:27.598Z,28.40
2019-06-27T14:15:56.441Z,28.40
2019-06-27T14:18:25.463Z,28.40
2019-06-27T14:21:13.563Z,28.40
2019-06-27T14:23:42.389Z,28.40
2019-06-27T14:26:11.340Z,28.50
2019-06-27T14:28:40.253Z,28.60
2019-06-27T14:31:09.228Z,28.60
2019-06-27T14:33:38.148Z,28.70
2019-06-27T14:36:07.026Z,28.80
2019-06-27T14:38:35.840Z,28.80
2019-06-27T14:41:04.801Z,28.90
2019-06-27T14:43:37.603Z,29.00
2019-06-27T14:46:04.491Z,29.10
2019-06-27T14:48:33.305Z,29.20
2019-06-27T14:51:02.127Z,29.30
2019-06-27T14:53:31.036Z,29.50
2019-06-27T14:55:59.914Z,29.60
2019-06-27T14:58:28.849Z,29.80
2019-06-27T15:00:57.763Z,29.90
2019-06-27T15:03:26.578Z,29.90
2019-06-27T15:05:55.567Z,30.00
2019-06-27T15:08:24.459Z,30.10
2019-06-27T15:10:53.500Z,30.30
2019-06-27T15:13:22.400Z,30.40
2019-06-27T15:15:51.395Z,30.50
2019-06-27T15:18:20.438Z,30.70
2019-06-27T15:20:49.345Z,30.80
2019-06-27T15:23:18.291Z,30.80
2019-06-27T15:25:47.261Z,30.80
2019-06-27T15:28:16.093Z,31.00
2019-06-27T15:30:45.083Z,31.10
2019-06-27T15:33:14.053Z,31.30
2019-06-27T15:35:51.827Z,31.40
2019-06-27T15:38:13.961Z,31.50
2019-06-27T15:40:43.546Z,31.70
2019-06-27T15:43:12.414Z,31.90
2019-06-27T15:45:41.239Z,32.00
2019-06-27T15:48:10.048Z,32.10
2019-06-27T15:50:39.023Z,32.30
2019-06-27T15:53:07.874Z,32.30
2019-06-27T15:55:36.709Z,32.40
2019-06-27T15:58:05.535Z,32.60
2019-06-27T16:00:34.440Z,32.70
2019-06-27T16:03:03.331Z,32.80
2019-06-27T16:05:32.321Z,32.90
2019-06-27T16:08:01.363Z,33.00
2019-06-27T16:10:30.401Z,33.10
2019-06-27T16:13:02.397Z,33.20
2019-06-27T16:15:29.981Z,33.30
2019-06-27T16:17:58.934Z,33.40
2019-06-27T16:20:27.951Z,33.40
2019-06-27T16:22:56.784Z,33.50
2019-06-27T16:25:25.884Z,33.50
2019-06-27T16:27:54.776Z,33.60
2019-06-27T16:30:23.818Z,33.70
2019-06-27T16:32:52.755Z,33.60
2019-06-27T16:35:21.858Z,33.60
2019-06-27T16:37:50.770Z,33.70
2019-06-27T16:40:20.053Z,33.80
2019-06-27T16:42:49.028Z,33.90
2019-06-27T16:45:18.176Z,34.00
2019-06-27T16:47:47.148Z,34.10
2019-06-27T16:50:17.003Z,34.20
2019-06-27T16:52:45.906Z,34.20
2019-06-27T16:55:14.882Z,34.30
2019-06-27T16:57:43.766Z,34.30
2019-06-27T17:00:13.088Z,34.30
2019-06-27T17:02:42.071Z,34.30
2019-06-27T17:05:11.463Z,34.20
2019-06-27T17:07:40.349Z,34.20
2019-06-27T17:10:09.665Z,34.20
2019-06-27T17:12:38.500Z,34.00
2019-06-27T17:15:09.308Z,33.40
2019-06-27T17:17:38.164Z,33.40
2019-06-27T17:20:07.641Z,32.90
2019-06-27T17:22:36.532Z,32.40
2019-06-27T17:25:06.264Z,30.20
2019-06-27T17:27:35.275Z,31.30
2019-06-27T17:30:05.300Z,30.80
2019-06-27T17:32:34.249Z,30.40
2019-06-27T17:35:03.259Z,29.90
2019-06-27T17:37:32.198Z,29.50
2019-06-27T17:40:01.065Z,29.20
2019-06-27T17:42:30.035Z,28.90
2019-06-27T17:44:58.911Z,28.60
2019-06-27T17:47:27.903Z,28.30
2019-06-27T17:49:56.690Z,28.10
2019-06-27T17:52:25.766Z,27.90
2019-06-27T17:54:54.730Z,27.70
2019-06-27T17:57:23.738Z,27.50
2019-06-27T17:59:52.811Z,27.30
2019-06-27T18:02:21.880Z,27.10
2019-06-27T18:04:50.939Z,24.60
2019-06-27T18:07:19.813Z,26.80
2019-06-27T18:09:48.828Z,26.60
2019-06-27T18:12:17.819Z,26.50
2019-06-27T18:14:46.741Z,26.30
2019-06-27T18:17:15.545Z,26.20
2019-06-27T18:19:44.448Z,26.10
2019-06-27T18:22:13.333Z,26.00
2019-06-27T18:24:42.247Z,25.90
2019-06-27T18:27:11.057Z,25.70
2019-06-27T18:29:39.869Z,25.60
2019-06-27T18:32:08.909Z,25.50
2019-06-27T18:34:37.736Z,25.40
2019-06-27T18:37:06.603Z,25.30
2019-06-27T18:39:35.434Z,25.20
2019-06-27T18:42:04.476Z,25.10
2019-06-27T18:44:33.311Z,25.00
2019-06-27T18:47:02.326Z,24.90
2019-06-27T18:49:31.304Z,24.90
2019-06-27T18:52:00.260Z,24.80
2019-06-27T18:54:29.221Z,24.70
2019-06-27T18:56:58.058Z,24.70
2019-06-27T18:59:26.904Z,24.60
2019-06-27T19:01:55.918Z,24.50
2019-06-27T19:04:24.784Z,24.50
2019-06-27T19:06:53.644Z,24.40
2019-06-27T19:09:22.499Z,24.40
2019-06-27T19:11:51.560Z,24.30
2019-06-27T19:14:20.533Z,24.30
2019-06-27T19:16:49.382Z,24.20
2019-06-27T19:19:20.720Z,24.00
2019-06-27T19:22:14.960Z,24.00
2019-06-27T19:24:52.458Z,23.90
2019-06-27T19:27:21.344Z,23.90
2019-06-27T19:29:50.292Z,23.80
2019-06-27T19:32:19.308Z,23.70
2019-06-27T19:34:48.116Z,23.70
2019-06-27T19:37:16.940Z,23.60
2019-06-27T19:39:45.749Z,23.60
2019-06-27T19:42:14.769Z,23.50
2019-06-27T19:44:43.705Z,23.40
2019-06-27T19:47:12.976Z,23.30
2019-06-27T19:49:41.919Z,23.30
2019-06-27T19:52:10.748Z,23.20
2019-06-27T19:54:39.917Z,23.00
2019-06-27T19:57:08.784Z,22.90
2019-06-27T19:59:37.749Z,22.90
2019-06-27T20:02:06.712Z,22.90
2019-06-27T20:04:35.524Z,22.80
2019-06-27T20:07:04.537Z,22.80
2019-06-27T20:09:33.540Z,22.70
2019-06-27T20:12:02.587Z,22.70
2019-06-27T20:14:31.682Z,22.60
2019-06-27T20:17:00.514Z,22.50
2019-06-27T20:19:29.316Z,22.50
2019-06-27T20:21:58.156Z,22.40
2019-06-27T20:24:27.204Z,22.40
2019-06-27T20:26:56.466Z,22.30
2019-06-27T20:29:25.266Z,22.20
2019-06-27T20:31:54.201Z,22.10
2019-06-27T20:34:23.124Z,22.10
2019-06-27T20:36:51.964Z,22.00
2019-06-27T20:39:20.901Z,22.00
2019-06-27T20:41:49.809Z,21.90
2019-06-27T20:44:18.712Z,21.90
2019-06-27T20:46:47.573Z,21.80
2019-06-27T20:49:16.563Z,21.80
2019-06-27T20:51:45.460Z,21.70
2019-06-27T20:54:14.344Z,21.70
2019-06-27T20:56:43.242Z,21.70
2019-06-27T20:59:12.206Z,21.60
2019-06-27T21:01:41.189Z,21.50
2019-06-27T21:04:10.068Z,21.50
2019-06-27T21:06:38.960Z,21.40
2019-06-27T21:09:07.899Z,21.30
2019-06-27T21:11:36.900Z,21.30
2019-06-27T21:14:05.942Z,21.30
2019-06-27T21:16:35.044Z,21.30
2019-06-27T21:19:03.924Z,21.20
2019-06-27T21:21:33.429Z,21.10
2019-06-27T21:24:02.387Z,21.10
2019-06-27T21:26:31.394Z,21.10
2019-06-27T21:29:00.323Z,21.10
2019-06-27T21:31:29.207Z,21.00
2019-06-27T21:33:58.324Z,21.00
2019-06-27T21:36:27.136Z,20.90
2019-06-27T21:39:07.028Z,20.90
2019-06-27T21:41:26.715Z,20.90
2019-06-27T21:43:55.763Z,20.80
2019-06-27T21:46:24.665Z,20.80
2019-06-27T21:48:53.486Z,20.80
2019-06-27T21:51:22.436Z,20.70
2019-06-27T21:53:51.466Z,20.70
2019-06-27T21:56:20.254Z,20.70
2019-06-27T21:58:49.090Z,20.70
2019-06-27T22:01:18.395Z,20.60
2019-06-27T22:03:47.432Z,20.60
2019-06-27T22:06:16.444Z,20.60
2019-06-27T22:08:45.398Z,20.60
2019-06-27T22:11:14.372Z,20.50
2019-06-27T22:13:43.299Z,20.50
2019-06-27T22:16:12.337Z,20.50
2019-06-27T22:18:41.332Z,20.50
2019-06-27T22:21:10.290Z,20.40
2019-06-27T22:23:39.116Z,20.40
2019-06-27T22:26:08.081Z,20.40
2019-06-27T22:28:36.974Z,20.30
2019-06-27T22:31:05.901Z,20.30
2019-06-27T22:33:34.871Z,20.30
2019-06-27T22:36:23.084Z,20.30
2019-06-27T22:39:09.947Z,20.30
2019-06-27T22:41:56.953Z,20.20
2019-06-27T22:44:43.829Z,20.20
2019-06-27T22:47:30.931Z,20.20
2019-06-27T22:49:59.407Z,20.10
2019-06-27T22:53:04.886Z,20.10
2019-06-27T22:55:33.814Z,20.00
2019-06-27T22:58:03.035Z,20.00
2019-06-27T23:00:32.009Z,19.90
2019-06-27T23:03:00.934Z,19.80
2019-06-27T23:05:30.034Z,19.80
2019-06-27T23:07:58.884Z,19.70
2019-06-27T23:10:27.883Z,19.70
2019-06-27T23:12:57.062Z,19.70
2019-06-27T23:15:26.072Z,19.70
2019-06-27T23:17:54.949Z,19.70
2019-06-27T23:20:23.766Z,19.70
2019-06-27T23:22:52.757Z,19.70
2019-06-27T23:25:21.692Z,19.60
2019-06-27T23:27:50.653Z,19.60
2019-06-27T23:30:19.645Z,19.50
2019-06-27T23:32:48.493Z,19.50
2019-06-27T23:35:17.378Z,19.50
2019-06-27T23:37:46.300Z,19.40
2019-06-27T23:40:15.574Z,19.40
2019-06-27T23:42:44.449Z,19.30
2019-06-27T23:45:13.513Z,19.20
2019-06-27T23:47:42.331Z,19.10
2019-06-27T23:50:11.544Z,19.00
2019-06-27T23:52:40.518Z,18.90
2019-06-27T23:55:09.916Z,18.80
2019-06-27T23:57:38.738Z,18.90
